sensor_id;sensor_type;location;lat;lon;timestamp;temperature;humidity
49379;DHT22;35254;47.990;-1.608;2023-06-01T00:00:35;24.40;56.30
49379;DHT22;35254;47.990;-1.608;2023-06-01T00:03:01;24.40;56.50
49379;DHT22;35254;47.990;-1.608;2023-06-01T00:05:26;24.40;56.40
49379;DHT22;35254;47.990;-1.608;2023-06-01T00:07:52;24.40;56.30
49379;DHT22;35254;47.990;-1.608;2023-06-01T00:10:18;24.50;56.30
49379;DHT22;35254;47.990;-1.608;2023-06-01T00:12:43;24.40;56.30
49379;DHT22;35254;47.990;-1.608;2023-06-01T00:15:09;24.50;56.20
49379;DHT22;35254;47.990;-1.608;2023-06-01T00:17:35;24.50;56.30
49379;DHT22;35254;47.990;-1.608;2023-06-01T00:20:01;24.50;56.20
49379;DHT22;35254;47.990;-1.608;2023-06-01T00:22:27;24.50;56.20
49379;DHT22;35254;47.990;-1.608;2023-06-01T00:25:00;24.50;56.30
49379;DHT22;35254;47.990;-1.608;2023-06-01T00:27:25;24.50;56.20
49379;DHT22;35254;47.990;-1.608;2023-06-01T00:29:51;24.50;56.30
49379;DHT22;35254;47.990;-1.608;2023-06-01T00:32:17;24.50;56.40
49379;DHT22;35254;47.990;-1.608;2023-06-01T00:34:42;24.50;56.30
49379;DHT22;35254;47.990;-1.608;2023-06-01T00:37:08;24.50;56.30
49379;DHT22;35254;47.990;-1.608;2023-06-01T00:39:33;24.50;56.10
49379;DHT22;35254;47.990;-1.608;2023-06-01T00:41:59;24.50;56.10
49379;DHT22;35254;47.990;-1.608;2023-06-01T00:44:25;24.50;55.90
49379;DHT22;35254;47.990;-1.608;2023-06-01T00:46:51;24.50;55.90
49379;DHT22;35254;47.990;-1.608;2023-06-01T00:49:18;24.50;55.90
49379;DHT22;35254;47.990;-1.608;2023-06-01T00:51:44;24.50;55.90
49379;DHT22;35254;47.990;-1.608;2023-06-01T00:54:10;24.50;55.80
49379;DHT22;35254;47.990;-1.608;2023-06-01T00:56:36;24.50;55.80
49379;DHT22;35254;47.990;-1.608;2023-06-01T00:59:03;24.50;55.80
49379;DHT22;35254;47.990;-1.608;2023-06-01T01:01:28;24.50;55.70
49379;DHT22;35254;47.990;-1.608;2023-06-01T01:03:54;24.50;55.70
49379;DHT22;35254;47.990;-1.608;2023-06-01T01:19:56;24.40;55.40
49379;DHT22;35254;47.990;-1.608;2023-06-01T01:22:54;24.40;55.40
49379;DHT22;35254;47.990;-1.608;2023-06-01T01:30:54;24.40;55.40
49379;DHT22;35254;47.990;-1.608;2023-06-01T01:33:21;24.40;55.40
49379;DHT22;35254;47.990;-1.608;2023-06-01T01:35:49;24.40;55.30
49379;DHT22;35254;47.990;-1.608;2023-06-01T01:38:15;24.40;55.50
49379;DHT22;35254;47.990;-1.608;2023-06-01T01:40:41;24.40;55.40
49379;DHT22;35254;47.990;-1.608;2023-06-01T01:43:06;24.40;55.30
49379;DHT22;35254;47.990;-1.608;2023-06-01T01:45:32;24.40;55.50
49379;DHT22;35254;47.990;-1.608;2023-06-01T01:48:10;24.40;55.50
49379;DHT22;35254;47.990;-1.608;2023-06-01T01:50:41;24.40;55.60
49379;DHT22;35254;47.990;-1.608;2023-06-01T01:53:12;24.40;55.60
49379;DHT22;35254;47.990;-1.608;2023-06-01T01:55:38;24.40;55.50
49379;DHT22;35254;47.990;-1.608;2023-06-01T01:58:04;24.40;55.50
49379;DHT22;35254;47.990;-1.608;2023-06-01T02:00:30;24.40;55.70
49379;DHT22;35254;47.990;-1.608;2023-06-01T02:02:57;24.40;55.70
49379;DHT22;35254;47.990;-1.608;2023-06-01T02:05:23;24.30;55.50
49379;DHT22;35254;47.990;-1.608;2023-06-01T02:07:49;24.30;55.60
49379;DHT22;35254;47.990;-1.608;2023-06-01T02:10:14;24.30;55.50
49379;DHT22;35254;47.990;-1.608;2023-06-01T02:12:40;24.30;55.60
49379;DHT22;35254;47.990;-1.608;2023-06-01T02:15:06;24.30;55.40
49379;DHT22;35254;47.990;-1.608;2023-06-01T02:17:32;24.30;55.60
49379;DHT22;35254;47.990;-1.608;2023-06-01T02:19:58;24.30;55.50
49379;DHT22;35254;47.990;-1.608;2023-06-01T02:22:24;24.30;55.60
49379;DHT22;35254;47.990;-1.608;2023-06-01T02:24:50;24.30;55.50
49379;DHT22;35254;47.990;-1.608;2023-06-01T02:27:15;24.30;55.40
49379;DHT22;35254;47.990;-1.608;2023-06-01T02:29:41;24.30;55.30
49379;DHT22;35254;47.990;-1.608;2023-06-01T02:32:07;24.30;55.50
49379;DHT22;35254;47.990;-1.608;2023-06-01T02:34:32;24.30;55.40
49379;DHT22;35254;47.990;-1.608;2023-06-01T02:36:58;24.20;55.40
49379;DHT22;35254;47.990;-1.608;2023-06-01T02:39:23;24.30;55.50
49379;DHT22;35254;47.990;-1.608;2023-06-01T02:41:49;24.30;55.30
49379;DHT22;35254;47.990;-1.608;2023-06-01T02:44:15;24.30;55.40
49379;DHT22;35254;47.990;-1.608;2023-06-01T02:46:40;24.30;55.40
49379;DHT22;35254;47.990;-1.608;2023-06-01T02:49:06;24.20;55.30
49379;DHT22;35254;47.990;-1.608;2023-06-01T02:51:32;24.20;55.40
49379;DHT22;35254;47.990;-1.608;2023-06-01T02:53:58;24.20;55.30
49379;DHT22;35254;47.990;-1.608;2023-06-01T02:56:24;24.20;55.30
49379;DHT22;35254;47.990;-1.608;2023-06-01T02:58:50;24.20;55.30
49379;DHT22;35254;47.990;-1.608;2023-06-01T03:01:16;24.20;55.30
49379;DHT22;35254;47.990;-1.608;2023-06-01T03:03:42;24.20;55.20
49379;DHT22;35254;47.990;-1.608;2023-06-01T03:06:08;24.20;55.30
49379;DHT22;35254;47.990;-1.608;2023-06-01T03:08:34;24.20;55.10
49379;DHT22;35254;47.990;-1.608;2023-06-01T03:11:00;24.20;55.00
49379;DHT22;35254;47.990;-1.608;2023-06-01T03:13:26;24.20;54.30
49379;DHT22;35254;47.990;-1.608;2023-06-01T03:15:51;24.20;53.70
49379;DHT22;35254;47.990;-1.608;2023-06-01T03:18:17;24.20;53.50
49379;DHT22;35254;47.990;-1.608;2023-06-01T03:20:43;24.20;53.30
49379;DHT22;35254;47.990;-1.608;2023-06-01T03:23:08;24.10;53.30
49379;DHT22;35254;47.990;-1.608;2023-06-01T03:25:34;24.10;53.20
49379;DHT22;35254;47.990;-1.608;2023-06-01T03:28:00;24.10;53.20
49379;DHT22;35254;47.990;-1.608;2023-06-01T03:30:25;24.10;53.30
49379;DHT22;35254;47.990;-1.608;2023-06-01T03:32:51;24.10;52.90
49379;DHT22;35254;47.990;-1.608;2023-06-01T03:35:17;24.10;53.00
49379;DHT22;35254;47.990;-1.608;2023-06-01T03:37:44;24.10;52.90
49379;DHT22;35254;47.990;-1.608;2023-06-01T03:40:10;24.10;52.90
49379;DHT22;35254;47.990;-1.608;2023-06-01T03:42:45;24.10;52.80
49379;DHT22;35254;47.990;-1.608;2023-06-01T03:45:12;24.00;52.90
49379;DHT22;35254;47.990;-1.608;2023-06-01T03:47:38;24.00;52.60
49379;DHT22;35254;47.990;-1.608;2023-06-01T03:50:05;24.00;52.90
49379;DHT22;35254;47.990;-1.608;2023-06-01T03:52:32;24.00;52.70
49379;DHT22;35254;47.990;-1.608;2023-06-01T03:54:59;24.00;52.80
49379;DHT22;35254;47.990;-1.608;2023-06-01T03:57:28;24.00;52.80
49379;DHT22;35254;47.990;-1.608;2023-06-01T03:59:53;24.00;53.00
49379;DHT22;35254;47.990;-1.608;2023-06-01T04:02:19;24.00;52.80
49379;DHT22;35254;47.990;-1.608;2023-06-01T04:04:45;24.00;53.10
49379;DHT22;35254;47.990;-1.608;2023-06-01T04:07:14;24.00;52.80
49379;DHT22;35254;47.990;-1.608;2023-06-01T04:09:44;24.00;52.90
49379;DHT22;35254;47.990;-1.608;2023-06-01T04:12:12;24.00;52.80
49379;DHT22;35254;47.990;-1.608;2023-06-01T04:14:38;24.00;52.80
49379;DHT22;35254;47.990;-1.608;2023-06-01T04:17:03;24.00;52.80
49379;DHT22;35254;47.990;-1.608;2023-06-01T04:19:29;24.00;52.60
49379;DHT22;35254;47.990;-1.608;2023-06-01T04:21:56;23.90;52.70
49379;DHT22;35254;47.990;-1.608;2023-06-01T04:24:22;23.90;52.70
49379;DHT22;35254;47.990;-1.608;2023-06-01T04:26:48;24.00;52.50
49379;DHT22;35254;47.990;-1.608;2023-06-01T04:29:15;24.00;52.50
49379;DHT22;35254;47.990;-1.608;2023-06-01T04:31:41;24.00;52.50
49379;DHT22;35254;47.990;-1.608;2023-06-01T04:34:06;23.90;52.40
49379;DHT22;35254;47.990;-1.608;2023-06-01T04:36:35;23.90;52.50
49379;DHT22;35254;47.990;-1.608;2023-06-01T04:39:08;23.90;52.60
49379;DHT22;35254;47.990;-1.608;2023-06-01T04:41:34;23.90;52.50
49379;DHT22;35254;47.990;-1.608;2023-06-01T04:44:01;23.90;52.70
49379;DHT22;35254;47.990;-1.608;2023-06-01T04:46:31;23.90;52.40
49379;DHT22;35254;47.990;-1.608;2023-06-01T04:48:56;23.90;52.50
49379;DHT22;35254;47.990;-1.608;2023-06-01T04:51:25;23.90;52.40
49379;DHT22;35254;47.990;-1.608;2023-06-01T04:53:53;23.90;52.50
49379;DHT22;35254;47.990;-1.608;2023-06-01T04:56:21;23.90;52.50
49379;DHT22;35254;47.990;-1.608;2023-06-01T04:58:51;23.90;52.70
49379;DHT22;35254;47.990;-1.608;2023-06-01T05:01:17;23.80;52.60
49379;DHT22;35254;47.990;-1.608;2023-06-01T05:03:44;23.90;52.70
49379;DHT22;35254;47.990;-1.608;2023-06-01T05:06:12;23.90;52.60
49379;DHT22;35254;47.990;-1.608;2023-06-01T05:08:41;23.90;53.60
49379;DHT22;35254;47.990;-1.608;2023-06-01T05:11:08;23.90;53.70
49379;DHT22;35254;47.990;-1.608;2023-06-01T05:13:38;23.90;53.70
49379;DHT22;35254;47.990;-1.608;2023-06-01T05:16:04;24.00;54.20
49379;DHT22;35254;47.990;-1.608;2023-06-01T05:18:30;23.90;54.10
49379;DHT22;35254;47.990;-1.608;2023-06-01T05:20:56;23.90;54.30
49379;DHT22;35254;47.990;-1.608;2023-06-01T05:23:22;23.90;54.30
49379;DHT22;35254;47.990;-1.608;2023-06-01T05:25:48;23.90;54.50
49379;DHT22;35254;47.990;-1.608;2023-06-01T05:28:14;23.90;54.60
49379;DHT22;35254;47.990;-1.608;2023-06-01T05:30:40;23.90;54.60
49379;DHT22;35254;47.990;-1.608;2023-06-01T05:33:06;23.90;53.50
49379;DHT22;35254;47.990;-1.608;2023-06-01T05:35:31;23.90;53.50
49379;DHT22;35254;47.990;-1.608;2023-06-01T05:37:57;23.90;53.80
49379;DHT22;35254;47.990;-1.608;2023-06-01T05:40:23;23.90;53.90
49379;DHT22;35254;47.990;-1.608;2023-06-01T05:42:48;23.90;54.10
49379;DHT22;35254;47.990;-1.608;2023-06-01T05:45:14;23.90;54.10
49379;DHT22;35254;47.990;-1.608;2023-06-01T05:47:39;23.90;54.50
49379;DHT22;35254;47.990;-1.608;2023-06-01T05:50:05;23.90;54.30
49379;DHT22;35254;47.990;-1.608;2023-06-01T05:52:32;23.80;55.00
49379;DHT22;35254;47.990;-1.608;2023-06-01T05:54:58;23.90;54.80
49379;DHT22;35254;47.990;-1.608;2023-06-01T05:57:23;23.80;54.50
49379;DHT22;35254;47.990;-1.608;2023-06-01T05:59:49;23.90;54.20
49379;DHT22;35254;47.990;-1.608;2023-06-01T06:02:15;23.80;54.50
49379;DHT22;35254;47.990;-1.608;2023-06-01T06:04:41;23.80;53.90
49379;DHT22;35254;47.990;-1.608;2023-06-01T06:07:06;23.80;53.90
49379;DHT22;35254;47.990;-1.608;2023-06-01T06:09:33;23.80;53.90
49379;DHT22;35254;47.990;-1.608;2023-06-01T06:11:59;23.80;53.40
49379;DHT22;35254;47.990;-1.608;2023-06-01T06:14:25;23.70;53.10
49379;DHT22;35254;47.990;-1.608;2023-06-01T06:16:51;23.70;53.00
49379;DHT22;35254;47.990;-1.608;2023-06-01T06:19:16;23.70;52.70
49379;DHT22;35254;47.990;-1.608;2023-06-01T06:21:42;23.70;52.80
49379;DHT22;35254;47.990;-1.608;2023-06-01T06:24:08;23.60;52.60
49379;DHT22;35254;47.990;-1.608;2023-06-01T06:26:33;23.70;52.80
49379;DHT22;35254;47.990;-1.608;2023-06-01T06:28:59;23.70;53.00
49379;DHT22;35254;47.990;-1.608;2023-06-01T06:31:25;23.70;53.50
49379;DHT22;35254;47.990;-1.608;2023-06-01T06:33:51;23.70;53.30
49379;DHT22;35254;47.990;-1.608;2023-06-01T06:36:17;23.70;53.60
49379;DHT22;35254;47.990;-1.608;2023-06-01T06:38:43;23.70;53.60
49379;DHT22;35254;47.990;-1.608;2023-06-01T06:41:09;23.70;53.70
49379;DHT22;35254;47.990;-1.608;2023-06-01T06:43:35;23.70;53.80
49379;DHT22;35254;47.990;-1.608;2023-06-01T06:46:00;23.70;53.80
49379;DHT22;35254;47.990;-1.608;2023-06-01T06:48:26;23.70;53.90
49379;DHT22;35254;47.990;-1.608;2023-06-01T06:50:51;23.70;53.90
49379;DHT22;35254;47.990;-1.608;2023-06-01T06:53:17;23.70;54.40
49379;DHT22;35254;47.990;-1.608;2023-06-01T06:55:43;23.70;54.00
49379;DHT22;35254;47.990;-1.608;2023-06-01T06:58:10;23.70;54.00
49379;DHT22;35254;47.990;-1.608;2023-06-01T07:00:39;23.70;54.90
49379;DHT22;35254;47.990;-1.608;2023-06-01T07:03:06;23.80;57.80
49379;DHT22;35254;47.990;-1.608;2023-06-01T07:05:32;23.70;55.90
49379;DHT22;35254;47.990;-1.608;2023-06-01T07:07:58;23.70;55.00
49379;DHT22;35254;47.990;-1.608;2023-06-01T07:10:23;23.70;55.30
49379;DHT22;35254;47.990;-1.608;2023-06-01T07:12:50;23.70;55.30
49379;DHT22;35254;47.990;-1.608;2023-06-01T07:15:16;23.60;55.20
49379;DHT22;35254;47.990;-1.608;2023-06-01T07:17:42;23.60;54.80
49379;DHT22;35254;47.990;-1.608;2023-06-01T07:20:08;23.60;55.70
49379;DHT22;35254;47.990;-1.608;2023-06-01T07:22:38;23.60;55.70
49379;DHT22;35254;47.990;-1.608;2023-06-01T07:25:04;23.60;55.50
49379;DHT22;35254;47.990;-1.608;2023-06-01T07:27:30;23.60;55.30
49379;DHT22;35254;47.990;-1.608;2023-06-01T07:29:57;23.60;55.70
49379;DHT22;35254;47.990;-1.608;2023-06-01T07:32:23;23.60;56.30
49379;DHT22;35254;47.990;-1.608;2023-06-01T07:34:49;23.70;56.00
49379;DHT22;35254;47.990;-1.608;2023-06-01T07:37:15;23.60;55.70
49379;DHT22;35254;47.990;-1.608;2023-06-01T07:39:41;23.60;55.70
49379;DHT22;35254;47.990;-1.608;2023-06-01T07:42:06;23.60;55.60
49379;DHT22;35254;47.990;-1.608;2023-06-01T07:44:32;23.60;55.40
49379;DHT22;35254;47.990;-1.608;2023-06-01T07:46:58;23.70;55.60
49379;DHT22;35254;47.990;-1.608;2023-06-01T07:49:24;23.60;55.50
49379;DHT22;35254;47.990;-1.608;2023-06-01T07:51:50;23.60;55.80
49379;DHT22;35254;47.990;-1.608;2023-06-01T07:54:17;23.60;56.10
49379;DHT22;35254;47.990;-1.608;2023-06-01T07:56:43;23.70;56.20
49379;DHT22;35254;47.990;-1.608;2023-06-01T07:59:09;23.70;56.60
49379;DHT22;35254;47.990;-1.608;2023-06-01T08:01:35;23.70;56.60
49379;DHT22;35254;47.990;-1.608;2023-06-01T08:04:01;23.70;56.40
49379;DHT22;35254;47.990;-1.608;2023-06-01T08:06:27;23.70;56.40
49379;DHT22;35254;47.990;-1.608;2023-06-01T08:08:53;23.70;56.40
49379;DHT22;35254;47.990;-1.608;2023-06-01T08:11:18;23.70;56.60
49379;DHT22;35254;47.990;-1.608;2023-06-01T08:13:44;23.70;56.40
49379;DHT22;35254;47.990;-1.608;2023-06-01T08:16:13;23.80;56.70
49379;DHT22;35254;47.990;-1.608;2023-06-01T08:18:39;23.80;56.60
49379;DHT22;35254;47.990;-1.608;2023-06-01T08:21:05;23.80;56.10
49379;DHT22;35254;47.990;-1.608;2023-06-01T08:23:31;23.80;55.30
49379;DHT22;35254;47.990;-1.608;2023-06-01T08:25:56;23.90;55.40
49379;DHT22;35254;47.990;-1.608;2023-06-01T08:28:22;23.90;55.10
49379;DHT22;35254;47.990;-1.608;2023-06-01T08:30:48;23.90;55.10
49379;DHT22;35254;47.990;-1.608;2023-06-01T08:33:13;23.90;55.00
49379;DHT22;35254;47.990;-1.608;2023-06-01T08:35:40;24.00;55.00
49379;DHT22;35254;47.990;-1.608;2023-06-01T08:38:06;24.00;54.80
49379;DHT22;35254;47.990;-1.608;2023-06-01T08:40:31;24.00;54.80
49379;DHT22;35254;47.990;-1.608;2023-06-01T08:43:05;24.00;54.80
49379;DHT22;35254;47.990;-1.608;2023-06-01T08:45:32;24.00;54.70
49379;DHT22;35254;47.990;-1.608;2023-06-01T08:47:58;24.00;54.70
49379;DHT22;35254;47.990;-1.608;2023-06-01T08:50:26;24.10;54.70
49379;DHT22;35254;47.990;-1.608;2023-06-01T08:52:53;24.10;54.80
49379;DHT22;35254;47.990;-1.608;2023-06-01T08:55:22;24.10;54.80
49379;DHT22;35254;47.990;-1.608;2023-06-01T08:57:48;24.10;54.70
49379;DHT22;35254;47.990;-1.608;2023-06-01T09:00:14;24.10;54.90
49379;DHT22;35254;47.990;-1.608;2023-06-01T09:02:41;24.10;54.80
49379;DHT22;35254;47.990;-1.608;2023-06-01T09:05:09;24.10;54.90
49379;DHT22;35254;47.990;-1.608;2023-06-01T09:07:36;24.10;54.90
49379;DHT22;35254;47.990;-1.608;2023-06-01T09:10:02;24.20;54.90
49379;DHT22;35254;47.990;-1.608;2023-06-01T09:12:29;24.10;54.90
49379;DHT22;35254;47.990;-1.608;2023-06-01T09:15:11;24.20;54.90
49379;DHT22;35254;47.990;-1.608;2023-06-01T09:17:41;24.20;55.00
49379;DHT22;35254;47.990;-1.608;2023-06-01T09:20:15;24.20;54.80
49379;DHT22;35254;47.990;-1.608;2023-06-01T09:22:47;24.20;54.90
49379;DHT22;35254;47.990;-1.608;2023-06-01T09:25:13;24.20;54.90
49379;DHT22;35254;47.990;-1.608;2023-06-01T09:27:46;24.20;54.90
49379;DHT22;35254;47.990;-1.608;2023-06-01T09:30:13;24.20;54.80
49379;DHT22;35254;47.990;-1.608;2023-06-01T09:32:39;24.20;54.80
49379;DHT22;35254;47.990;-1.608;2023-06-01T09:35:05;24.20;55.00
49379;DHT22;35254;47.990;-1.608;2023-06-01T09:37:36;24.20;54.90
49379;DHT22;35254;47.990;-1.608;2023-06-01T09:40:05;24.20;54.90
49379;DHT22;35254;47.990;-1.608;2023-06-01T09:42:41;24.30;54.90
49379;DHT22;35254;47.990;-1.608;2023-06-01T09:45:22;24.20;54.90
49379;DHT22;35254;47.990;-1.608;2023-06-01T09:47:48;24.20;54.90
49379;DHT22;35254;47.990;-1.608;2023-06-01T09:50:37;24.30;55.00
49379;DHT22;35254;47.990;-1.608;2023-06-01T09:53:05;24.30;55.10
49379;DHT22;35254;47.990;-1.608;2023-06-01T09:55:31;24.20;55.10
49379;DHT22;35254;47.990;-1.608;2023-06-01T09:58:21;24.20;55.10
49379;DHT22;35254;47.990;-1.608;2023-06-01T10:00:49;24.30;55.20
49379;DHT22;35254;47.990;-1.608;2023-06-01T10:03:16;24.30;55.20
49379;DHT22;35254;47.990;-1.608;2023-06-01T10:05:46;24.30;55.20
49379;DHT22;35254;47.990;-1.608;2023-06-01T10:08:13;24.30;55.10
49379;DHT22;35254;47.990;-1.608;2023-06-01T10:10:42;24.30;55.20
49379;DHT22;35254;47.990;-1.608;2023-06-01T10:13:10;24.30;55.30
49379;DHT22;35254;47.990;-1.608;2023-06-01T10:15:36;24.30;55.30
49379;DHT22;35254;47.990;-1.608;2023-06-01T10:18:03;24.30;56.30
49379;DHT22;35254;47.990;-1.608;2023-06-01T10:20:35;24.30;56.00
49379;DHT22;35254;47.990;-1.608;2023-06-01T10:23:02;24.30;55.80
49379;DHT22;35254;47.990;-1.608;2023-06-01T10:25:40;24.30;56.00
49379;DHT22;35254;47.990;-1.608;2023-06-01T10:28:10;24.30;55.90
49379;DHT22;35254;47.990;-1.608;2023-06-01T10:30:36;24.30;56.00
49379;DHT22;35254;47.990;-1.608;2023-06-01T10:33:03;24.30;56.00
49379;DHT22;35254;47.990;-1.608;2023-06-01T10:40:43;24.30;56.40
49379;DHT22;35254;47.990;-1.608;2023-06-01T10:46:03;24.30;56.70
49379;DHT22;35254;47.990;-1.608;2023-06-01T10:48:51;24.30;56.90
49379;DHT22;35254;47.990;-1.608;2023-06-01T10:51:20;24.40;57.10
49379;DHT22;35254;47.990;-1.608;2023-06-01T10:53:46;24.30;57.10
49379;DHT22;35254;47.990;-1.608;2023-06-01T10:56:25;24.40;57.30
49379;DHT22;35254;47.990;-1.608;2023-06-01T11:01:46;24.40;57.80
49379;DHT22;35254;47.990;-1.608;2023-06-01T11:04:12;24.40;58.00
49379;DHT22;35254;47.990;-1.608;2023-06-01T11:06:40;24.40;57.90
49379;DHT22;35254;47.990;-1.608;2023-06-01T11:09:09;24.40;58.00
49379;DHT22;35254;47.990;-1.608;2023-06-01T11:14:22;24.50;58.40
49379;DHT22;35254;47.990;-1.608;2023-06-01T11:16:50;24.50;58.50
49379;DHT22;35254;47.990;-1.608;2023-06-01T11:21:46;24.50;58.70
49379;DHT22;35254;47.990;-1.608;2023-06-01T11:24:16;24.60;58.70
49379;DHT22;35254;47.990;-1.608;2023-06-01T11:26:47;24.60;58.90
49379;DHT22;35254;47.990;-1.608;2023-06-01T11:29:19;24.70;58.70
49379;DHT22;35254;47.990;-1.608;2023-06-01T11:34:18;24.70;58.30
49379;DHT22;35254;47.990;-1.608;2023-06-01T11:36:46;24.70;57.90
49379;DHT22;35254;47.990;-1.608;2023-06-01T11:39:27;24.70;57.40
49379;DHT22;35254;47.990;-1.608;2023-06-01T11:42:19;24.70;57.40
49379;DHT22;35254;47.990;-1.608;2023-06-01T11:44:46;24.70;57.30
49379;DHT22;35254;47.990;-1.608;2023-06-01T11:47:14;24.70;57.30
49379;DHT22;35254;47.990;-1.608;2023-06-01T11:49:48;24.70;57.30
49379;DHT22;35254;47.990;-1.608;2023-06-01T11:52:14;24.70;57.30
49379;DHT22;35254;47.990;-1.608;2023-06-01T11:54:40;24.80;57.40
49379;DHT22;35254;47.990;-1.608;2023-06-01T11:57:07;24.80;57.60
49379;DHT22;35254;47.990;-1.608;2023-06-01T11:59:51;24.70;57.50
49379;DHT22;35254;47.990;-1.608;2023-06-01T12:02:21;24.80;57.40
49379;DHT22;35254;47.990;-1.608;2023-06-01T12:05:13;24.80;57.30
49379;DHT22;35254;47.990;-1.608;2023-06-01T12:07:50;24.80;57.20
49379;DHT22;35254;47.990;-1.608;2023-06-01T12:10:20;24.90;57.20
49379;DHT22;35254;47.990;-1.608;2023-06-01T12:12:46;24.90;57.10
49379;DHT22;35254;47.990;-1.608;2023-06-01T12:15:17;24.90;57.00
49379;DHT22;35254;47.990;-1.608;2023-06-01T12:20:32;24.90;56.90
49379;DHT22;35254;47.990;-1.608;2023-06-01T12:22:59;24.90;57.00
49379;DHT22;35254;47.990;-1.608;2023-06-01T12:25:26;24.90;57.30
49379;DHT22;35254;47.990;-1.608;2023-06-01T12:28:06;24.90;57.30
49379;DHT22;35254;47.990;-1.608;2023-06-01T12:30:32;24.90;57.20
49379;DHT22;35254;47.990;-1.608;2023-06-01T12:32:58;25.00;57.10
49379;DHT22;35254;47.990;-1.608;2023-06-01T12:35:24;25.00;57.10
49379;DHT22;35254;47.990;-1.608;2023-06-01T12:38:07;25.00;57.10
49379;DHT22;35254;47.990;-1.608;2023-06-01T12:40:33;25.00;57.00
49379;DHT22;35254;47.990;-1.608;2023-06-01T12:43:00;25.10;56.80
49379;DHT22;35254;47.990;-1.608;2023-06-01T12:45:37;25.10;56.80
49379;DHT22;35254;47.990;-1.608;2023-06-01T12:48:04;25.10;56.70
49379;DHT22;35254;47.990;-1.608;2023-06-01T12:50:30;25.10;56.70
49379;DHT22;35254;47.990;-1.608;2023-06-01T12:52:55;25.10;56.60
49379;DHT22;35254;47.990;-1.608;2023-06-01T12:55:21;25.10;56.70
49379;DHT22;35254;47.990;-1.608;2023-06-01T12:57:54;25.10;56.70
49379;DHT22;35254;47.990;-1.608;2023-06-01T13:00:20;25.10;56.50
49379;DHT22;35254;47.990;-1.608;2023-06-01T13:02:47;25.10;56.50
49379;DHT22;35254;47.990;-1.608;2023-06-01T13:05:16;25.10;56.50
49379;DHT22;35254;47.990;-1.608;2023-06-01T13:07:44;25.10;56.50
49379;DHT22;35254;47.990;-1.608;2023-06-01T13:10:11;25.20;56.50
49379;DHT22;35254;47.990;-1.608;2023-06-01T13:12:37;25.10;56.40
49379;DHT22;35254;47.990;-1.608;2023-06-01T13:15:03;25.10;56.40
49379;DHT22;35254;47.990;-1.608;2023-06-01T13:17:29;25.10;56.40
49379;DHT22;35254;47.990;-1.608;2023-06-01T13:19:55;25.20;56.40
49379;DHT22;35254;47.990;-1.608;2023-06-01T13:22:21;25.20;56.40
49379;DHT22;35254;47.990;-1.608;2023-06-01T13:24:47;25.20;56.40
49379;DHT22;35254;47.990;-1.608;2023-06-01T13:27:13;25.10;56.40
49379;DHT22;35254;47.990;-1.608;2023-06-01T13:29:39;25.10;56.30
49379;DHT22;35254;47.990;-1.608;2023-06-01T13:32:05;25.20;56.30
49379;DHT22;35254;47.990;-1.608;2023-06-01T13:34:31;25.20;56.30
49379;DHT22;35254;47.990;-1.608;2023-06-01T13:36:57;25.20;56.20
49379;DHT22;35254;47.990;-1.608;2023-06-01T13:39:23;25.20;56.20
49379;DHT22;35254;47.990;-1.608;2023-06-01T13:41:49;25.20;56.10
49379;DHT22;35254;47.990;-1.608;2023-06-01T13:44:15;25.20;56.20
49379;DHT22;35254;47.990;-1.608;2023-06-01T13:46:42;25.20;56.20
49379;DHT22;35254;47.990;-1.608;2023-06-01T13:49:09;25.20;56.20
49379;DHT22;35254;47.990;-1.608;2023-06-01T13:51:35;25.20;56.20
49379;DHT22;35254;47.990;-1.608;2023-06-01T13:54:03;25.20;56.10
49379;DHT22;35254;47.990;-1.608;2023-06-01T13:56:29;25.20;56.20
49379;DHT22;35254;47.990;-1.608;2023-06-01T13:58:55;25.20;56.20
49379;DHT22;35254;47.990;-1.608;2023-06-01T14:01:21;25.20;56.30
49379;DHT22;35254;47.990;-1.608;2023-06-01T14:03:47;25.20;56.30
49379;DHT22;35254;47.990;-1.608;2023-06-01T14:06:12;25.20;56.40
49379;DHT22;35254;47.990;-1.608;2023-06-01T14:08:38;25.20;56.50
49379;DHT22;35254;47.990;-1.608;2023-06-01T14:11:04;25.20;56.50
49379;DHT22;35254;47.990;-1.608;2023-06-01T14:13:30;25.30;56.50
49379;DHT22;35254;47.990;-1.608;2023-06-01T14:15:56;25.20;56.60
49379;DHT22;35254;47.990;-1.608;2023-06-01T14:18:22;25.30;56.50
49379;DHT22;35254;47.990;-1.608;2023-06-01T14:20:47;25.30;56.60
49379;DHT22;35254;47.990;-1.608;2023-06-01T14:23:13;25.30;56.50
49379;DHT22;35254;47.990;-1.608;2023-06-01T14:25:39;25.20;56.30
49379;DHT22;35254;47.990;-1.608;2023-06-01T14:28:05;25.30;56.40
49379;DHT22;35254;47.990;-1.608;2023-06-01T14:30:31;25.30;56.40
49379;DHT22;35254;47.990;-1.608;2023-06-01T14:32:57;25.30;56.20
49379;DHT22;35254;47.990;-1.608;2023-06-01T14:35:23;25.30;56.20
49379;DHT22;35254;47.990;-1.608;2023-06-01T14:37:49;25.30;56.10
49379;DHT22;35254;47.990;-1.608;2023-06-01T14:40:14;25.30;56.20
49379;DHT22;35254;47.990;-1.608;2023-06-01T14:42:40;25.30;56.20
49379;DHT22;35254;47.990;-1.608;2023-06-01T14:45:06;25.30;56.20
49379;DHT22;35254;47.990;-1.608;2023-06-01T14:47:32;25.30;56.30
49379;DHT22;35254;47.990;-1.608;2023-06-01T14:49:58;25.30;54.60
49379;DHT22;35254;47.990;-1.608;2023-06-01T14:52:24;25.40;53.00
49379;DHT22;35254;47.990;-1.608;2023-06-01T14:54:50;25.40;52.00
49379;DHT22;35254;47.990;-1.608;2023-06-01T14:57:16;25.40;52.50
49379;DHT22;35254;47.990;-1.608;2023-06-01T14:59:41;25.40;50.90
49379;DHT22;35254;47.990;-1.608;2023-06-01T15:02:08;25.40;50.60
49379;DHT22;35254;47.990;-1.608;2023-06-01T15:04:34;25.40;50.30
49379;DHT22;35254;47.990;-1.608;2023-06-01T15:07:00;25.30;52.50
49379;DHT22;35254;47.990;-1.608;2023-06-01T15:09:26;25.40;51.80
49379;DHT22;35254;47.990;-1.608;2023-06-01T15:11:51;25.40;51.60
49379;DHT22;35254;47.990;-1.608;2023-06-01T15:14:17;25.40;52.40
49379;DHT22;35254;47.990;-1.608;2023-06-01T15:16:43;25.40;52.40
49379;DHT22;35254;47.990;-1.608;2023-06-01T15:19:09;25.40;50.90
49379;DHT22;35254;47.990;-1.608;2023-06-01T15:21:35;25.40;49.90
49379;DHT22;35254;47.990;-1.608;2023-06-01T15:24:01;25.40;49.80
49379;DHT22;35254;47.990;-1.608;2023-06-01T15:26:27;25.30;49.50
49379;DHT22;35254;47.990;-1.608;2023-06-01T15:28:53;25.30;49.30
49379;DHT22;35254;47.990;-1.608;2023-06-01T15:31:19;25.30;49.60
49379;DHT22;35254;47.990;-1.608;2023-06-01T15:33:45;25.30;49.80
49379;DHT22;35254;47.990;-1.608;2023-06-01T15:36:11;25.30;50.00
49379;DHT22;35254;47.990;-1.608;2023-06-01T15:38:36;25.40;52.30
49379;DHT22;35254;47.990;-1.608;2023-06-01T15:41:02;25.30;52.80
49379;DHT22;35254;47.990;-1.608;2023-06-01T15:43:28;25.30;52.90
49379;DHT22;35254;47.990;-1.608;2023-06-01T15:46:10;25.40;52.90
49379;DHT22;35254;47.990;-1.608;2023-06-01T15:48:42;25.40;52.90
49379;DHT22;35254;47.990;-1.608;2023-06-01T15:51:08;25.40;52.90
49379;DHT22;35254;47.990;-1.608;2023-06-01T15:53:33;25.50;52.90
49379;DHT22;35254;47.990;-1.608;2023-06-01T15:55:59;25.40;53.00